Time;durP1;ratioP1;P1;durP2;ratioP2;P2;SDS_P1;SDS_P2;PMS_P1;PMS_P2;Temp;Humidity;BMP_temperature;BMP_pressure;BME280_temperature;BME280_humidity;BME280_pressure;Samples;Min_cycle;Max_cycle;Signal;HPM_P1;HPM_P2
2023/07/17 00:00:43;;;;;;;16.25;3.35;;;15.50;99.90;;;;;;5050804;28;20783;-72
2023/07/17 00:03:09;;;;;;;11.80;2.40;;;15.60;99.90;;;;;;5050279;28;20045;-73
2023/07/17 00:05:34;;;;;;;10.43;2.83;;;15.60;99.90;;;;;;5050753;28;20442;-78
2023/07/17 00:08:00;;;;;;;9.77;2.40;;;15.60;99.90;;;;;;5050735;28;20476;-75
2023/07/17 00:10:26;;;;;;;12.10;2.78;;;15.60;99.90;;;;;;5049100;28;20412;-75
2023/07/17 00:12:51;;;;;;;11.45;2.80;;;15.60;99.90;;;;;;5050704;28;20037;-75
2023/07/17 00:15:17;;;;;;;11.88;2.55;;;15.60;99.90;;;;;;5050243;28;20050;-74
2023/07/17 00:17:42;;;;;;;12.30;2.83;;;15.70;99.90;;;;;;5050086;28;20777;-77
2023/07/17 00:20:11;;;;;;;11.40;2.72;;;15.70;99.90;;;;;;5050246;28;20571;-74
2023/07/17 00:22:37;;;;;;;11.93;2.60;;;15.70;99.90;;;;;;5044687;28;20484;-75
2023/07/17 00:25:06;;;;;;;11.25;2.53;;;15.70;99.90;;;;;;5050346;28;20041;-76
2023/07/17 00:27:35;;;;;;;19.13;2.85;;;15.70;99.90;;;;;;5049591;28;20528;-71
2023/07/17 00:30:00;;;;;;;10.63;2.67;;;15.80;99.90;;;;;;5048853;28;20496;-68
2023/07/17 00:32:26;;;;;;;13.98;2.80;;;15.80;99.90;;;;;;5049837;28;20044;-68
2023/07/17 00:34:52;;;;;;;11.38;2.83;;;15.80;99.90;;;;;;5049940;28;20056;-66
2023/07/17 00:37:17;;;;;;;18.13;2.97;;;15.80;99.90;;;;;;5048327;28;20068;-72
2023/07/17 00:39:43;;;;;;;11.15;3.25;;;15.90;99.90;;;;;;5048631;28;20037;-67
2023/07/17 00:42:08;;;;;;;11.68;2.60;;;15.80;99.90;;;;;;5050082;28;20169;-67
2023/07/17 00:44:38;;;;;;;11.60;2.92;;;15.80;99.90;;;;;;5049395;28;20037;-66
2023/07/17 00:47:04;;;;;;;10.95;2.90;;;15.80;99.90;;;;;;5050062;28;20053;-67
2023/07/17 00:49:31;;;;;;;6.53;1.77;;;15.70;99.90;;;;;;5049470;28;20049;-69
2023/07/17 00:51:59;;;;;;;5.07;1.70;;;15.60;99.90;;;;;;5049961;28;20060;-67
2023/07/17 00:54:27;;;;;;;5.40;1.55;;;15.60;99.90;;;;;;5049543;28;20122;-68
2023/07/17 00:56:55;;;;;;;7.18;1.77;;;15.50;99.90;;;;;;5049968;28;20060;-70
2023/07/17 00:59:21;;;;;;;6.65;1.67;;;15.50;99.90;;;;;;5049860;28;20385;-68
2023/07/17 01:01:48;;;;;;;7.30;2.10;;;15.40;99.90;;;;;;5049225;28;20103;-66
2023/07/17 01:04:14;;;;;;;5.05;1.70;;;15.40;99.90;;;;;;5049128;28;20094;-67
2023/07/17 01:06:40;;;;;;;4.63;1.70;;;15.40;99.90;;;;;;5049564;28;20045;-66
2023/07/17 01:09:07;;;;;;;7.88;2.10;;;15.30;99.90;;;;;;5049436;28;20083;-66
2023/07/17 01:11:34;;;;;;;8.20;2.50;;;15.30;99.90;;;;;;5048936;28;20114;-71
2023/07/17 01:13:59;;;;;;;6.55;2.00;;;15.20;99.90;;;;;;5049563;28;20045;-67
2023/07/17 01:16:25;;;;;;;7.43;2.03;;;15.20;99.90;;;;;;5049660;28;20056;-68
2023/07/17 01:18:51;;;;;;;6.28;2.05;;;15.20;99.90;;;;;;5049024;28;20048;-67
2023/07/17 01:21:19;;;;;;;8.13;2.28;;;15.10;99.90;;;;;;5049050;28;20113;-67
2023/07/17 01:23:45;;;;;;;7.60;2.00;;;15.20;99.90;;;;;;5049224;28;20124;-67
2023/07/17 01:26:18;;;;;;;7.00;2.30;;;15.10;99.90;;;;;;5049102;28;20144;-67
2023/07/17 01:28:45;;;;;;;8.07;2.17;;;15.10;99.90;;;;;;5049559;28;20083;-67
2023/07/17 01:31:11;;;;;;;6.38;1.77;;;15.10;99.90;;;;;;5049195;28;20032;-67
2023/07/17 01:33:38;;;;;;;8.30;1.88;;;15.10;99.90;;;;;;5049122;28;20045;-67
2023/07/17 01:36:05;;;;;;;7.95;2.10;;;15.10;99.90;;;;;;5049281;28;20077;-67
2023/07/17 01:38:31;;;;;;;6.32;2.00;;;15.10;99.90;;;;;;5048608;28;20033;-67
2023/07/17 01:40:57;;;;;;;7.20;2.10;;;15.10;99.90;;;;;;5047585;28;20638;-67
2023/07/17 01:43:22;;;;;;;10.07;2.17;;;15.10;99.90;;;;;;5049089;28;20045;-66
2023/07/17 01:45:48;;;;;;;6.80;2.00;;;15.10;99.90;;;;;;5048987;28;20037;-67
2023/07/17 01:48:17;;;;;;;8.68;2.25;;;15.00;99.90;;;;;;5049137;28;20124;-66
2023/07/17 01:50:49;;;;;;;8.73;2.20;;;15.00;99.90;;;;;;5048643;28;20076;-69
2023/07/17 01:53:19;;;;;;;11.00;2.60;;;15.00;99.90;;;;;;5048853;28;20120;-66
2023/07/17 01:55:44;;;;;;;6.47;2.08;;;15.00;99.90;;;;;;5049064;28;20135;-66
2023/07/17 01:58:10;;;;;;;11.20;2.58;;;15.00;99.90;;;;;;5049132;28;20481;-66
2023/07/17 02:00:36;;;;;;;11.18;2.40;;;15.00;99.90;;;;;;5048411;28;20068;-66
2023/07/17 02:03:02;;;;;;;10.38;2.97;;;15.00;99.90;;;;;;5048566;28;20092;-66
2023/07/17 02:05:27;;;;;;;12.20;2.25;;;15.00;99.90;;;;;;5048896;28;20041;-67
2023/07/17 02:07:53;;;;;;;8.77;2.30;;;15.00;99.90;;;;;;5048685;28;20055;-66
2023/07/17 02:10:19;;;;;;;7.85;2.22;;;15.00;99.90;;;;;;5048571;28;20041;-66
2023/07/17 02:12:45;;;;;;;12.30;2.60;;;14.90;99.90;;;;;;5049158;28;20116;-73
2023/07/17 02:15:12;;;;;;;10.15;2.20;;;14.90;99.90;;;;;;5048891;28;20139;-73
2023/07/17 02:17:38;;;;;;;7.72;2.30;;;14.90;99.90;;;;;;5048592;28;20044;-70
2023/07/17 02:20:09;;;;;;;9.45;2.67;;;14.80;99.90;;;;;;5046603;28;20041;-74
2023/07/17 02:22:36;;;;;;;9.38;2.05;;;14.80;99.90;;;;;;5042130;28;20045;-72
2023/07/17 02:25:05;;;;;;;9.45;2.47;;;14.80;99.90;;;;;;5048532;28;20128;-71
2023/07/17 02:27:33;;;;;;;6.57;2.10;;;14.80;99.90;;;;;;5048900;28;20064;-67
2023/07/17 02:29:59;;;;;;;6.90;2.03;;;14.80;99.90;;;;;;5048552;28;20488;-71
2023/07/17 02:32:29;;;;;;;9.63;2.75;;;14.70;99.90;;;;;;5048623;28;20087;-67
2023/07/17 02:34:54;;;;;;;4.45;2.25;;;14.70;99.90;;;;;;5048405;28;20377;-74
2023/07/17 02:37:20;;;;;;;10.88;2.47;;;14.70;99.90;;;;;;5047421;28;20052;-73
2023/07/17 02:39:45;;;;;;;7.03;2.45;;;14.60;99.90;;;;;;5048773;28;20063;-73
2023/07/17 02:42:11;;;;;;;9.55;2.75;;;14.70;99.90;;;;;;5048103;28;20076;-75
2023/07/17 02:44:37;;;;;;;10.70;2.53;;;14.70;99.90;;;;;;5042217;28;20509;-67
2023/07/17 02:47:03;;;;;;;8.38;3.30;;;14.60;99.90;;;;;;5048664;28;20060;-71
2023/07/17 02:49:29;;;;;;;9.95;2.80;;;14.60;99.90;;;;;;5049960;28;20041;-72
2023/07/17 02:51:55;;;;;;;9.68;2.97;;;14.60;99.90;;;;;;5052070;28;20048;-68
2023/07/17 02:54:21;;;;;;;11.60;3.08;;;14.60;99.90;;;;;;5051406;28;20657;-74
2023/07/17 02:56:48;;;;;;;11.65;3.00;;;14.60;99.90;;;;;;5052142;28;20051;-72
2023/07/17 02:59:14;;;;;;;8.43;3.13;;;14.60;99.90;;;;;;5052201;28;20041;-69
2023/07/17 03:01:40;;;;;;;12.93;3.72;;;14.60;99.90;;;;;;5051524;28;20047;-72
2023/07/17 03:04:06;;;;;;;11.88;3.67;;;14.60;99.90;;;;;;5052457;28;20033;-68
2023/07/17 03:06:31;;;;;;;9.32;3.28;;;14.60;99.90;;;;;;5044873;28;20057;-68
2023/07/17 03:08:57;;;;;;;9.93;3.42;;;14.60;99.90;;;;;;5048664;28;20052;-69
2023/07/17 03:11:22;;;;;;;8.15;3.20;;;14.50;99.90;;;;;;5046449;28;20040;-68
2023/07/17 03:13:48;;;;;;;11.52;3.50;;;14.50;99.90;;;;;;5051234;28;20057;-71
2023/07/17 03:16:14;;;;;;;11.40;3.78;;;14.50;99.90;;;;;;5051874;28;20041;-67
2023/07/17 03:18:39;;;;;;;11.65;3.60;;;14.50;99.90;;;;;;5051695;28;20037;-67
2023/07/17 03:21:05;;;;;;;10.77;3.40;;;14.60;99.90;;;;;;5051505;28;20057;-68
2023/07/17 03:23:31;;;;;;;8.80;3.20;;;14.60;99.90;;;;;;5051365;28;20056;-66
2023/07/17 03:25:57;;;;;;;11.80;3.40;;;14.60;99.90;;;;;;5051488;28;20052;-68
2023/07/17 03:28:22;;;;;;;12.57;3.10;;;14.60;99.90;;;;;;5051640;28;20150;-67
2023/07/17 03:30:48;;;;;;;10.18;2.78;;;14.40;99.90;;;;;;5051386;28;20037;-67
2023/07/17 03:33:14;;;;;;;7.15;3.05;;;14.60;99.90;;;;;;5051236;28;20045;-68
2023/07/17 03:35:39;;;;;;;12.35;3.35;;;14.60;99.90;;;;;;5049776;28;20048;-66
2023/07/17 03:38:05;;;;;;;8.77;2.95;;;14.60;99.90;;;;;;5051216;28;20507;-68
2023/07/17 03:40:30;;;;;;;11.40;2.78;;;14.60;99.90;;;;;;5050653;28;20041;-67
2023/07/17 03:42:56;;;;;;;9.88;3.00;;;14.60;99.90;;;;;;5051145;28;20049;-68
2023/07/17 03:45:22;;;;;;;6.88;2.60;;;14.50;99.90;;;;;;5051519;28;20075;-68
2023/07/17 03:47:50;;;;;;;9.73;2.92;;;14.50;99.90;;;;;;5050734;28;20048;-67
2023/07/17 03:50:16;;;;;;;11.18;2.72;;;14.50;99.90;;;;;;5051137;28;20045;-66
2023/07/17 03:52:42;;;;;;;8.98;2.70;;;14.50;99.90;;;;;;5050627;28;20041;-68
2023/07/17 03:55:08;;;;;;;10.50;2.80;;;14.40;99.90;;;;;;5049206;28;20383;-67
2023/07/17 03:57:33;;;;;;;6.93;2.00;;;14.40;99.90;;;;;;5050967;28;20102;-68
2023/07/17 03:59:59;;;;;;;10.93;2.55;;;14.40;99.90;;;;;;5050675;28;20084;-68
2023/07/17 04:02:25;;;;;;;8.10;2.33;;;14.40;99.90;;;;;;5049947;28;20481;-67
2023/07/17 04:04:50;;;;;;;8.57;2.63;;;14.30;99.90;;;;;;5050598;28;20439;-66
2023/07/17 04:07:16;;;;;;;11.32;2.85;;;14.30;99.90;;;;;;5049554;28;20367;-66
2023/07/17 04:09:42;;;;;;;11.00;2.78;;;14.30;99.90;;;;;;5049977;28;20037;-67
2023/07/17 04:12:08;;;;;;;10.98;2.72;;;14.30;99.90;;;;;;5048960;28;20060;-67
2023/07/17 04:14:34;;;;;;;8.73;2.60;;;14.30;99.90;;;;;;5048979;28;20056;-66
2023/07/17 04:17:00;;;;;;;9.73;2.30;;;14.30;99.90;;;;;;5050515;28;20443;-67
2023/07/17 04:19:30;;;;;;;10.25;3.03;;;14.30;99.90;;;;;;5050300;28;20045;-66
2023/07/17 04:21:55;;;;;;;8.55;2.58;;;14.30;99.90;;;;;;5049846;28;20142;-66
2023/07/17 04:24:23;;;;;;;10.82;2.55;;;14.30;99.90;;;;;;5048856;28;20623;-67
2023/07/17 04:26:50;;;;;;;9.30;2.60;;;14.30;99.90;;;;;;5049190;28;20045;-68
2023/07/17 04:29:16;;;;;;;13.57;2.75;;;14.30;99.90;;;;;;5050369;28;20063;-66
2023/07/17 04:31:42;;;;;;;10.27;2.60;;;14.30;99.90;;;;;;5050459;28;20041;-68
2023/07/17 04:34:08;;;;;;;10.05;2.30;;;14.40;99.90;;;;;;5049992;28;20052;-68
2023/07/17 04:36:33;;;;;;;10.65;3.17;;;14.40;99.90;;;;;;5050588;28;20476;-66
2023/07/17 04:38:59;;;;;;;10.38;2.47;;;14.40;99.90;;;;;;5049902;28;20792;-70
2023/07/17 04:41:25;;;;;;;10.00;2.63;;;14.60;99.90;;;;;;5049928;28;20128;-68
2023/07/17 04:43:50;;;;;;;12.45;2.45;;;14.50;99.90;;;;;;5050205;28;20045;-66
2023/07/17 04:46:16;;;;;;;11.38;2.75;;;14.50;99.90;;;;;;5049792;28;20122;-72
2023/07/17 04:48:42;;;;;;;9.82;2.75;;;14.50;99.90;;;;;;5049827;28;20123;-71
2023/07/17 04:51:07;;;;;;;9.95;2.35;;;14.60;99.90;;;;;;5048685;28;20099;-71
2023/07/17 04:53:34;;;;;;;10.25;3.63;;;14.60;99.90;;;;;;5049615;28;20041;-71
2023/07/17 04:55:59;;;;;;;14.30;2.88;;;14.70;99.90;;;;;;5049640;28;20049;-68
2023/07/17 04:58:26;;;;;;;14.38;2.88;;;14.70;99.90;;;;;;5049510;28;20128;-67
2023/07/17 05:00:58;;;;;;;11.45;2.83;;;14.80;99.90;;;;;;5049568;28;20048;-72
2023/07/17 05:03:24;;;;;;;14.35;3.22;;;14.80;99.90;;;;;;5049476;28;20045;-68
2023/07/17 05:05:54;;;;;;;15.15;3.60;;;14.90;99.90;;;;;;5049456;28;20500;-69
2023/07/17 05:08:20;;;;;;;12.35;3.08;;;14.90;99.90;;;;;;5049431;28;20446;-73
2023/07/17 05:10:59;;;;;;;15.25;3.10;;;15.00;99.90;;;;;;5049284;28;20101;-65
2023/07/17 05:13:26;;;;;;;12.32;3.17;;;15.10;99.90;;;;;;5048985;28;20036;-70
2023/07/17 05:15:52;;;;;;;11.75;2.90;;;15.10;99.90;;;;;;5048910;28;20044;-70
2023/07/17 05:18:18;;;;;;;13.70;2.97;;;15.10;99.90;;;;;;5049145;28;20075;-71
2023/07/17 05:20:48;;;;;;;10.70;2.67;;;15.20;99.90;;;;;;5046486;28;20049;-73
2023/07/17 05:23:14;;;;;;;12.50;2.95;;;15.30;99.90;;;;;;5045501;28;20049;-67
2023/07/17 05:25:42;;;;;;;13.18;3.10;;;15.30;99.90;;;;;;5048629;28;20120;-69
2023/07/17 05:28:08;;;;;;;9.13;2.92;;;15.40;99.90;;;;;;5048696;28;21602;-70
2023/07/17 05:30:34;;;;;;;12.30;3.20;;;15.50;99.90;;;;;;5049356;28;20079;-72
2023/07/17 05:33:01;;;;;;;9.35;3.20;;;15.60;99.90;;;;;;5049221;28;20049;-72
2023/07/17 05:35:27;;;;;;;16.15;3.80;;;15.60;99.90;;;;;;5042185;28;20110;-67
2023/07/17 05:37:56;;;;;;;10.27;2.97;;;15.80;99.90;;;;;;5048645;28;20045;-72
2023/07/17 05:40:22;;;;;;;15.57;3.55;;;15.80;99.90;;;;;;5049211;28;20175;-69
2023/07/17 05:42:47;;;;;;;10.25;2.92;;;16.00;99.90;;;;;;5048699;28;20124;-69
2023/07/17 05:45:13;;;;;;;15.85;3.10;;;16.00;99.90;;;;;;5048911;28;20389;-69
2023/07/17 05:47:40;;;;;;;11.23;3.38;;;16.00;99.90;;;;;;5047726;28;20128;-72
2023/07/17 05:50:07;;;;;;;12.70;2.88;;;16.00;99.90;;;;;;5048963;28;20116;-77
2023/07/17 05:52:32;;;;;;;16.50;3.13;;;16.10;99.90;;;;;;5048971;28;20037;-71
2023/07/17 05:54:58;;;;;;;15.38;3.50;;;16.20;99.90;;;;;;5048936;28;20045;-70
2023/07/17 05:57:24;;;;;;;14.20;4.10;;;16.30;99.90;;;;;;5049144;28;20041;-74
2023/07/17 05:59:49;;;;;;;11.50;3.55;;;16.30;99.90;;;;;;5048715;28;20419;-75
2023/07/17 06:02:15;;;;;;;19.35;4.03;;;16.40;99.90;;;;;;5049004;28;20079;-74
2023/07/17 06:04:41;;;;;;;12.57;4.15;;;16.50;99.90;;;;;;5048632;28;20044;-74
2023/07/17 06:07:06;;;;;;;9.40;3.30;;;16.60;99.90;;;;;;5048795;28;20101;-67
2023/07/17 06:09:34;;;;;;;13.77;4.05;;;16.60;99.90;;;;;;5049208;28;20500;-72
2023/07/17 06:12:01;;;;;;;12.02;4.00;;;16.70;99.90;;;;;;5048511;28;20056;-69
2023/07/17 06:14:27;;;;;;;17.40;4.53;;;16.80;99.90;;;;;;5048655;28;20064;-67
2023/07/17 06:16:52;;;;;;;15.40;4.22;;;16.90;99.90;;;;;;5048405;28;20071;-67
2023/07/17 06:19:18;;;;;;;11.95;3.85;;;16.90;99.90;;;;;;5042380;28;20503;-67
2023/07/17 06:21:44;;;;;;;15.30;4.50;;;17.00;99.90;;;;;;5047982;28;20095;-68
2023/07/17 06:24:10;;;;;;;12.20;4.10;;;17.10;99.90;;;;;;5049305;28;20072;-67
2023/07/17 06:26:36;;;;;;;14.93;4.40;;;17.20;99.90;;;;;;5052503;28;20488;-68
2023/07/17 06:29:03;;;;;;;17.40;4.10;;;17.20;99.90;;;;;;5052556;28;20052;-72
2023/07/17 06:31:29;;;;;;;13.10;4.40;;;17.30;99.90;;;;;;5052344;28;20040;-72
2023/07/17 06:33:55;;;;;;;12.75;3.60;;;17.20;99.90;;;;;;5052616;28;20052;-68
2023/07/17 06:36:20;;;;;;;14.13;3.85;;;17.30;99.90;;;;;;5052303;28;20048;-68
2023/07/17 06:38:47;;;;;;;12.93;4.00;;;17.40;99.90;;;;;;5052285;28;20049;-69
2023/07/17 06:41:13;;;;;;;16.60;4.38;;;17.40;99.90;;;;;;5051903;28;20431;-70
2023/07/17 06:43:39;;;;;;;17.25;4.55;;;17.50;99.90;;;;;;5052721;28;20153;-68
2023/07/17 06:46:05;;;;;;;10.68;4.07;;;17.50;99.90;;;;;;5052389;28;20069;-69
2023/07/17 06:48:30;;;;;;;9.90;3.92;;;17.70;99.90;;;;;;5050772;28;20044;-75
2023/07/17 06:50:56;;;;;;;13.00;4.30;;;17.80;99.90;;;;;;5052230;28;20479;-69
2023/07/17 06:53:22;;;;;;;13.75;4.28;;;18.00;99.90;;;;;;5051893;28;20044;-71
2023/07/17 06:55:59;;;;;;;11.82;4.05;;;18.20;99.90;;;;;;5051813;28;20060;-68
2023/07/17 06:58:25;;;;;;;14.18;4.68;;;18.30;99.90;;;;;;5052003;28;20072;-70
2023/07/17 07:00:55;;;;;;;16.52;4.88;;;18.20;99.90;;;;;;5051210;28;20033;-67
2023/07/17 07:03:21;;;;;;;13.70;4.75;;;18.30;99.90;;;;;;5048256;28;20118;-70
2023/07/17 07:05:59;;;;;;;13.02;4.20;;;18.20;99.90;;;;;;5050515;28;20479;-69
2023/07/17 07:08:29;;;;;;;15.07;4.18;;;18.10;99.90;;;;;;5046165;28;20484;-67
2023/07/17 07:10:56;;;;;;;10.95;2.88;;;17.70;99.90;;;;;;5047978;28;20551;-67
2023/07/17 07:13:23;;;;;;;11.70;3.10;;;17.50;99.90;;;;;;5051423;28;20052;-67
2023/07/17 07:15:50;;;;;;;12.50;3.38;;;17.10;99.90;;;;;;5043187;28;20137;-68
2023/07/17 07:18:19;;;;;;;8.82;2.92;;;16.80;99.90;;;;;;5051523;28;20373;-70
2023/07/17 07:20:46;;;;;;;8.05;2.90;;;16.50;99.90;;;;;;5049186;28;20072;-73
2023/07/17 07:23:11;;;;;;;9.52;3.20;;;16.40;99.90;;;;;;5049238;28;20136;-69
2023/07/17 07:25:37;;;;;;;11.55;3.42;;;16.30;99.90;;;;;;5042513;28;20040;-68
2023/07/17 07:28:04;;;;;;;8.23;3.90;;;16.10;99.90;;;;;;5044554;28;20072;-74
2023/07/17 07:30:30;;;;;;;9.82;3.28;;;16.10;99.90;;;;;;5039353;28;20077;-71
2023/07/17 07:32:55;;;;;;;11.55;3.80;;;16.10;99.90;;;;;;5038954;28;20130;-69
2023/07/17 07:35:21;;;;;;;8.82;3.20;;;16.00;99.90;;;;;;5040090;28;20183;-69
2023/07/17 07:37:47;;;;;;;11.82;4.22;;;16.00;99.90;;;;;;5042192;28;20595;-75
2023/07/17 07:40:13;;;;;;;12.48;3.92;;;16.00;99.90;;;;;;5045421;28;20045;-69
2023/07/17 07:42:39;;;;;;;11.75;3.80;;;16.10;99.90;;;;;;5038984;28;20045;-71
2023/07/17 07:45:05;;;;;;;10.73;4.15;;;16.20;99.90;;;;;;5047310;28;20041;-69
2023/07/17 07:47:32;;;;;;;16.83;4.47;;;16.30;99.90;;;;;;5049429;28;20056;-68
2023/07/17 07:49:58;;;;;;;9.63;4.28;;;16.50;99.90;;;;;;5050054;28;20332;-68
2023/07/17 07:52:23;;;;;;;10.68;3.92;;;16.50;99.90;;;;;;5049408;28;20063;-70
2023/07/17 07:54:49;;;;;;;18.20;4.80;;;16.60;99.90;;;;;;5049894;28;20049;-70
2023/07/17 07:57:15;;;;;;;11.77;4.25;;;16.70;99.90;;;;;;5049455;28;20447;-70
2023/07/17 07:59:41;;;;;;;12.27;4.53;;;16.80;99.90;;;;;;5049836;28;20053;-70
2023/07/17 08:02:07;;;;;;;12.30;4.25;;;17.00;99.90;;;;;;5050231;28;20136;-67
2023/07/17 08:04:33;;;;;;;15.30;4.10;;;17.10;99.90;;;;;;5050563;28;20163;-73
2023/07/17 08:06:58;;;;;;;14.65;4.18;;;17.30;99.90;;;;;;5042640;28;20539;-70
2023/07/17 08:09:24;;;;;;;14.27;4.43;;;17.40;99.90;;;;;;5050196;28;20075;-74
2023/07/17 08:11:52;;;;;;;13.20;3.80;;;17.50;99.90;;;;;;5050066;28;20045;-74
2023/07/17 08:14:20;;;;;;;11.32;3.50;;;17.70;99.90;;;;;;5050542;28;20040;-68
2023/07/17 08:16:46;;;;;;;10.90;3.78;;;17.80;99.90;;;;;;5049873;28;20077;-69
2023/07/17 08:19:12;;;;;;;13.48;4.13;;;17.90;99.90;;;;;;5050294;28;20040;-73
2023/07/17 08:21:38;;;;;;;11.40;4.00;;;18.00;99.90;;;;;;5012826;28;1082149;-68
2023/07/17 08:24:04;;;;;;;15.52;4.75;;;18.10;99.90;;;;;;5050685;28;20045;-71
2023/07/17 08:26:30;;;;;;;12.32;4.00;;;18.20;99.90;;;;;;5051167;28;20068;-68
2023/07/17 08:28:55;;;;;;;15.40;4.43;;;18.30;99.90;;;;;;5050889;28;20073;-67
2023/07/17 08:31:21;;;;;;;11.10;3.72;;;18.40;99.90;;;;;;5050846;28;20040;-72
2023/07/17 08:33:47;;;;;;;13.05;3.58;;;18.60;99.90;;;;;;5048884;28;20442;-72
2023/07/17 08:36:12;;;;;;;13.82;3.85;;;18.60;99.90;;;;;;5048039;28;20037;-69
2023/07/17 08:38:38;;;;;;;12.00;3.58;;;18.80;99.90;;;;;;5050605;28;20391;-70
2023/07/17 08:41:04;;;;;;;10.10;3.40;;;18.90;99.90;;;;;;5044810;28;20076;-69
2023/07/17 08:43:30;;;;;;;8.98;3.92;;;19.10;99.90;;;;;;5043458;28;20068;-77
2023/07/17 08:45:56;;;;;;;11.05;3.40;;;19.20;99.90;;;;;;5046102;28;20045;-71
2023/07/17 08:48:24;;;;;;;14.45;3.47;;;19.40;99.90;;;;;;5044831;28;20033;-72
2023/07/17 08:50:51;;;;;;;20.58;3.95;;;19.50;99.90;;;;;;5049681;28;20041;-69
2023/07/17 08:53:19;;;;;;;11.75;2.90;;;19.70;99.90;;;;;;5050528;28;20518;-67
2023/07/17 08:55:46;;;;;;;9.25;2.95;;;19.80;99.90;;;;;;5050346;28;20555;-69
2023/07/17 08:58:13;;;;;;;6.95;2.35;;;19.80;99.90;;;;;;5050240;28;20072;-69
2023/07/17 09:00:39;;;;;;;10.88;3.33;;;19.80;99.90;;;;;;5049290;28;20041;-70
2023/07/17 09:03:05;;;;;;;7.43;2.42;;;19.80;99.90;;;;;;5039365;28;20404;-70
2023/07/17 09:05:31;;;;;;;8.15;2.67;;;19.90;99.90;;;;;;5048577;28;20408;-68
2023/07/17 09:07:57;;;;;;;7.15;2.58;;;20.00;99.90;;;;;;5050264;28;20053;-68
2023/07/17 09:10:23;;;;;;;7.43;2.78;;;20.10;99.90;;;;;;5049675;28;20037;-68
2023/07/17 09:12:56;;;;;;;10.52;2.60;;;20.00;99.90;;;;;;5049671;28;20094;-69
2023/07/17 09:15:23;;;;;;;8.70;2.03;;;19.90;99.90;;;;;;5050191;28;20167;-70
2023/07/17 09:17:48;;;;;;;6.05;2.00;;;19.80;99.90;;;;;;5047020;28;20053;-69
2023/07/17 09:20:17;;;;;;;10.18;2.03;;;19.90;99.90;;;;;;5049367;28;20053;-68
2023/07/17 09:22:43;;;;;;;9.00;2.42;;;20.00;99.90;;;;;;5049521;28;20049;-67
2023/07/17 09:25:12;;;;;;;8.88;2.70;;;20.20;99.90;;;;;;5050320;28;20052;-70
2023/07/17 09:27:48;;;;;;;8.38;2.08;;;20.30;99.90;;;;;;5050083;28;20037;-69
2023/07/17 09:30:16;;;;;;;7.65;2.05;;;20.40;99.90;;;;;;5048966;28;20587;-68
2023/07/17 09:32:42;;;;;;;9.30;2.30;;;20.40;99.90;;;;;;5048581;28;20056;-70
2023/07/17 09:35:11;;;;;;;7.10;2.45;;;20.40;99.90;;;;;;5049783;28;20431;-68
2023/07/17 09:37:38;;;;;;;7.47;1.92;;;20.50;99.90;;;;;;5048645;28;20807;-68
2023/07/17 09:40:08;;;;;;;8.60;1.83;;;20.70;99.90;;;;;;5049861;28;20041;-67
2023/07/17 09:42:34;;;;;;;8.60;2.17;;;20.70;99.90;;;;;;5041963;28;20036;-67
2023/07/17 09:45:01;;;;;;;8.50;2.38;;;20.90;99.90;;;;;;5048997;28;20044;-70
2023/07/17 09:47:27;;;;;;;6.10;2.00;;;20.90;99.90;;;;;;5049612;28;20056;-68
2023/07/17 09:49:54;;;;;;;8.95;2.00;;;21.20;99.90;;;;;;5048405;28;20454;-69
2023/07/17 09:52:20;;;;;;;13.65;2.10;;;21.00;99.90;;;;;;5048676;28;20561;-67
2023/07/17 09:54:49;;;;;;;5.90;2.13;;;21.00;99.90;;;;;;5046878;28;20037;-67
2023/07/17 09:57:38;;;;;;;5.85;2.55;;;21.10;99.90;;;;;;5045384;28;20081;-68
2023/07/17 10:00:18;;;;;;;11.15;2.00;;;21.10;99.90;;;;;;5050431;28;20042;-70
2023/07/17 10:02:53;;;;;;;5.50;1.70;;;21.10;99.90;;;;;;5052991;28;20106;-73
2023/07/17 10:05:19;;;;;;;6.75;1.60;;;21.10;99.90;;;;;;5053915;28;20134;-70
2023/07/17 10:07:48;;;;;;;9.20;2.17;;;21.10;99.90;;;;;;5042696;28;20052;-68
2023/07/17 10:10:13;;;;;;;10.63;2.28;;;21.20;99.90;;;;;;5051971;28;20048;-67
2023/07/17 10:12:40;;;;;;;9.85;2.28;;;21.40;99.90;;;;;;5045702;28;20033;-66
2023/07/17 10:15:08;;;;;;;9.13;2.33;;;21.30;99.90;;;;;;5045612;28;20048;-68
2023/07/17 10:17:35;;;;;;;7.80;2.00;;;21.20;99.90;;;;;;5053436;28;20059;-68
2023/07/17 10:20:08;;;;;;;7.70;2.38;;;21.10;99.90;;;;;;5053063;28;20053;-69
2023/07/17 10:22:44;;;;;;;8.38;2.10;;;21.10;99.90;;;;;;5052290;28;20060;-68
2023/07/17 10:25:19;;;;;;;7.95;2.33;;;20.80;99.90;;;;;;5052826;28;20432;-69
2023/07/17 10:27:47;;;;;;;7.38;2.00;;;21.00;99.90;;;;;;5052693;28;20511;-70
2023/07/17 10:30:23;;;;;;;6.93;2.00;;;21.20;99.90;;;;;;5052911;28;20056;-71
2023/07/17 10:33:13;;;;;;;5.85;2.00;;;21.30;99.90;;;;;;5048253;28;20120;-67
2023/07/17 10:35:55;;;;;;;8.15;1.88;;;21.60;99.90;;;;;;5050024;28;20120;-67
2023/07/17 10:38:28;;;;;;;6.65;1.90;;;21.60;99.90;;;;;;5050150;28;20045;-68
2023/07/17 10:41:05;;;;;;;11.43;2.00;;;21.80;99.90;;;;;;5048137;28;20067;-67
2023/07/17 10:43:33;;;;;;;5.88;2.22;;;21.70;99.90;;;;;;5050685;28;20120;-68
2023/07/17 10:46:02;;;;;;;6.32;1.80;;;21.70;99.90;;;;;;5052632;28;20526;-68
2023/07/17 10:48:34;;;;;;;6.43;1.90;;;21.80;99.90;;;;;;5052472;28;20406;-67
2023/07/17 10:50:59;;;;;;;11.20;2.70;;;21.80;99.90;;;;;;5047034;28;20052;-68
2023/07/17 10:53:25;;;;;;;5.53;1.92;;;21.70;99.90;;;;;;5052192;28;20048;-67
2023/07/17 10:55:51;;;;;;;6.07;2.00;;;21.80;99.90;;;;;;5052576;28;20041;-68
2023/07/17 10:58:20;;;;;;;7.55;2.22;;;21.80;99.90;;;;;;5052464;28;20057;-67
2023/07/17 11:00:47;;;;;;;5.20;2.13;;;21.80;99.90;;;;;;5052149;28;20089;-69
2023/07/17 11:03:14;;;;;;;4.57;1.88;;;21.90;99.90;;;;;;5052696;28;20115;-69
2023/07/17 11:05:41;;;;;;;5.65;1.80;;;21.80;99.90;;;;;;5050713;28;20045;-66
2023/07/17 11:08:08;;;;;;;4.18;1.58;;;21.70;99.90;;;;;;5051321;28;20053;-65
2023/07/17 11:10:35;;;;;;;6.60;1.85;;;22.10;99.90;;;;;;5052629;28;20107;-67
2023/07/17 11:13:04;;;;;;;6.97;2.03;;;22.10;99.90;;;;;;5041435;28;20033;-66
2023/07/17 11:15:35;;;;;;;6.45;1.77;;;21.90;99.90;;;;;;5045943;28;20156;-66
2023/07/17 11:18:03;;;;;;;7.35;2.00;;;21.90;99.90;;;;;;5043417;28;20045;-66
2023/07/17 11:20:30;;;;;;;7.15;1.90;;;22.10;99.90;;;;;;5044146;28;20090;-64
2023/07/17 11:22:56;;;;;;;5.75;1.92;;;22.10;99.90;;;;;;5042746;28;20156;-67
2023/07/17 11:25:29;;;;;;;8.32;1.98;;;22.30;99.90;;;;;;5040396;28;20059;-67
2023/07/17 11:27:56;;;;;;;8.35;2.42;;;22.20;99.90;;;;;;5050829;28;20434;-67
2023/07/17 11:30:27;;;;;;;8.30;1.92;;;21.90;99.90;;;;;;5044256;28;20045;-67
2023/07/17 11:32:58;;;;;;;7.35;1.85;;;21.60;99.90;;;;;;5044417;28;20052;-66
2023/07/17 11:35:49;;;;;;;7.88;1.80;;;21.50;99.90;;;;;;5040844;28;20156;-69
2023/07/17 11:38:18;;;;;;;5.78;1.70;;;21.50;99.90;;;;;;5050568;28;20041;-65
2023/07/17 11:40:53;;;;;;;9.13;1.98;;;21.50;99.90;;;;;;5051051;28;20637;-67
2023/07/17 11:43:30;;;;;;;7.93;1.65;;;21.80;99.90;;;;;;5051233;28;20045;-67
2023/07/17 11:46:01;;;;;;;5.88;1.38;;;21.90;99.90;;;;;;5051244;28;20114;-68
2023/07/17 11:48:34;;;;;;;5.05;1.38;;;22.30;99.90;;;;;;5051198;28;20048;-66
2023/07/17 11:51:05;;;;;;;5.07;1.80;;;22.20;99.90;;;;;;5050346;28;20053;-67
2023/07/17 11:53:32;;;;;;;8.07;1.80;;;22.30;99.90;;;;;;5051200;28;20048;-66
2023/07/17 11:56:01;;;;;;;6.20;2.13;;;22.60;99.90;;;;;;5050748;28;20049;-66
2023/07/17 11:58:30;;;;;;;7.18;2.10;;;22.60;99.90;;;;;;5049916;28;20049;-64
2023/07/17 12:00:57;;;;;;;5.93;1.70;;;22.60;99.90;;;;;;5046276;28;20095;-66
2023/07/17 12:03:23;;;;;;;4.75;1.80;;;22.60;99.90;;;;;;5045690;28;20043;-64
2023/07/17 12:05:49;;;;;;;5.00;1.60;;;22.50;99.90;;;;;;5043543;28;20107;-66
2023/07/17 12:08:16;;;;;;;4.65;1.70;;;22.60;99.90;;;;;;5053144;28;20459;-67
2023/07/17 12:10:41;;;;;;;8.23;1.50;;;22.60;99.60;;;;;;5048222;28;20049;-65
2023/07/17 12:13:08;;;;;;;6.20;1.85;;;22.80;99.80;;;;;;5050099;28;20159;-66
2023/07/17 12:15:34;;;;;;;4.43;1.30;;;22.80;99.50;;;;;;5049790;28;20045;-66
2023/07/17 12:18:00;;;;;;;8.50;1.80;;;22.60;99.30;;;;;;5048271;28;20037;-67
2023/07/17 12:20:27;;;;;;;6.63;1.33;;;22.60;99.10;;;;;;5048580;28;20057;-72
2023/07/17 12:22:54;;;;;;;9.80;1.70;;;22.30;99.40;;;;;;5049796;28;20101;-67
2023/07/17 12:25:20;;;;;;;5.50;1.77;;;22.10;99.70;;;;;;5050326;28;20128;-74
2023/07/17 12:27:47;;;;;;;6.35;1.70;;;21.70;99.80;;;;;;5048462;28;20373;-67
2023/07/17 12:30:16;;;;;;;3.95;1.58;;;21.50;99.90;;;;;;5049199;28;20748;-67
2023/07/17 12:32:42;;;;;;;5.20;1.65;;;21.80;99.90;;;;;;5051533;28;20040;-68
2023/07/17 12:35:09;;;;;;;4.40;1.52;;;22.00;99.90;;;;;;5049356;28;20507;-68
2023/07/17 12:37:35;;;;;;;5.72;1.67;;;22.10;99.40;;;;;;5050825;28;20048;-66
2023/07/17 12:40:02;;;;;;;4.20;1.23;;;22.30;98.90;;;;;;5047908;28;20037;-68